Cradley Heath, United Kingdom
Current Conditions -  °F | °C
As of 12:20 AM on Tuesday 25 Nov 2014 (Local Time) from EGBB Reporting Station
Clear Clear  
Wind Chill: 30°   Ceiling: Unl
Heat Index: 30°   Visibility: 4mi
Dew Point: 30°   Wind: 3mph
Humidity: 100%   Direction: 160°SSE
Pressure: 30.3"   Gusts: NA
Location:  52.47°N, 2.09°W
Report Text: EGBB 250020Z AUTO 16003KT 6000 NCD M01/M01 Q1026
Loading
Personal Weather Stations






























Interactive Weather Map New forecast layout! Learn more

10-Day Weather Forecast

Advertisements
Track Severe Weather on mobile